sensor_id;sensor_type;location;lat;lon;timestamp;P1;durP1;ratioP1;P2;durP2;ratioP2
33327;SDS011;19692;52.998;9.116;2022-12-07T00:01:06;31.87;;;18.70;;
33327;SDS011;19692;52.998;9.116;2022-12-07T00:03:44;30.13;;;18.43;;
33327;SDS011;19692;52.998;9.116;2022-12-07T00:06:12;28.90;;;19.37;;
33327;SDS011;19692;52.998;9.116;2022-12-07T00:08:40;31.10;;;19.23;;
33327;SDS011;19692;52.998;9.116;2022-12-07T00:11:06;31.53;;;18.50;;
33327;SDS011;19692;52.998;9.116;2022-12-07T00:13:37;31.73;;;19.23;;
33327;SDS011;19692;52.998;9.116;2022-12-07T00:16:05;30.67;;;18.80;;
33327;SDS011;19692;52.998;9.116;2022-12-07T00:18:34;33.97;;;20.50;;
33327;SDS011;19692;52.998;9.116;2022-12-07T00:21:01;32.63;;;20.27;;
33327;SDS011;19692;52.998;9.116;2022-12-07T00:23:29;31.63;;;19.50;;
33327;SDS011;19692;52.998;9.116;2022-12-07T00:25:55;28.73;;;19.60;;
33327;SDS011;19692;52.998;9.116;2022-12-07T00:28:21;30.90;;;19.53;;
33327;SDS011;19692;52.998;9.116;2022-12-07T00:30:47;32.93;;;20.20;;
33327;SDS011;19692;52.998;9.116;2022-12-07T00:33:12;32.73;;;20.70;;
33327;SDS011;19692;52.998;9.116;2022-12-07T00:35:38;31.33;;;19.97;;
33327;SDS011;19692;52.998;9.116;2022-12-07T00:38:04;30.07;;;18.57;;
33327;SDS011;19692;52.998;9.116;2022-12-07T00:40:30;30.57;;;20.07;;
33327;SDS011;19692;52.998;9.116;2022-12-07T00:42:55;32.40;;;19.83;;
33327;SDS011;19692;52.998;9.116;2022-12-07T00:45:21;28.37;;;18.83;;
33327;SDS011;19692;52.998;9.116;2022-12-07T00:47:47;28.57;;;20.13;;
33327;SDS011;19692;52.998;9.116;2022-12-07T00:50:13;28.27;;;19.03;;
33327;SDS011;19692;52.998;9.116;2022-12-07T00:52:38;27.40;;;18.87;;
33327;SDS011;19692;52.998;9.116;2022-12-07T00:55:04;25.20;;;17.03;;
33327;SDS011;19692;52.998;9.116;2022-12-07T00:57:30;30.47;;;17.90;;
33327;SDS011;19692;52.998;9.116;2022-12-07T00:59:56;28.60;;;16.97;;
33327;SDS011;19692;52.998;9.116;2022-12-07T01:02:22;27.00;;;16.73;;
33327;SDS011;19692;52.998;9.116;2022-12-07T01:04:48;23.63;;;15.40;;
33327;SDS011;19692;52.998;9.116;2022-12-07T01:07:14;21.83;;;15.40;;
33327;SDS011;19692;52.998;9.116;2022-12-07T01:09:40;28.40;;;15.87;;
33327;SDS011;19692;52.998;9.116;2022-12-07T01:12:06;24.53;;;16.33;;
33327;SDS011;19692;52.998;9.116;2022-12-07T01:14:32;21.73;;;14.33;;
33327;SDS011;19692;52.998;9.116;2022-12-07T01:16:57;20.50;;;13.30;;
33327;SDS011;19692;52.998;9.116;2022-12-07T01:19:23;19.30;;;13.67;;
33327;SDS011;19692;52.998;9.116;2022-12-07T01:21:49;21.27;;;13.10;;
33327;SDS011;19692;52.998;9.116;2022-12-07T01:24:15;19.07;;;12.47;;
33327;SDS011;19692;52.998;9.116;2022-12-07T01:26:40;20.03;;;12.30;;
33327;SDS011;19692;52.998;9.116;2022-12-07T01:29:06;19.37;;;10.83;;
33327;SDS011;19692;52.998;9.116;2022-12-07T01:31:32;16.37;;;11.43;;
33327;SDS011;19692;52.998;9.116;2022-12-07T01:33:59;18.73;;;10.90;;
33327;SDS011;19692;52.998;9.116;2022-12-07T01:39:00;20.07;;;11.23;;
33327;SDS011;19692;52.998;9.116;2022-12-07T01:41:32;14.40;;;10.37;;
33327;SDS011;19692;52.998;9.116;2022-12-07T01:44:17;17.93;;;10.73;;
33327;SDS011;19692;52.998;9.116;2022-12-07T01:46:54;15.67;;;9.80;;
33327;SDS011;19692;52.998;9.116;2022-12-07T01:52:26;14.17;;;9.57;;
33327;SDS011;19692;52.998;9.116;2022-12-07T01:54:57;12.63;;;8.67;;
33327;SDS011;19692;52.998;9.116;2022-12-07T01:57:28;14.70;;;8.67;;
33327;SDS011;19692;52.998;9.116;2022-12-07T01:59:56;17.70;;;9.63;;
33327;SDS011;19692;52.998;9.116;2022-12-07T02:02:23;14.63;;;9.20;;
33327;SDS011;19692;52.998;9.116;2022-12-07T02:04:57;13.87;;;9.03;;
33327;SDS011;19692;52.998;9.116;2022-12-07T02:07:27;15.53;;;8.47;;
33327;SDS011;19692;52.998;9.116;2022-12-07T02:09:54;21.67;;;9.10;;
33327;SDS011;19692;52.998;9.116;2022-12-07T02:12:20;13.13;;;8.00;;
33327;SDS011;19692;52.998;9.116;2022-12-07T02:14:47;14.13;;;7.83;;
33327;SDS011;19692;52.998;9.116;2022-12-07T02:20:11;11.43;;;7.73;;
33327;SDS011;19692;52.998;9.116;2022-12-07T02:29:11;10.07;;;6.60;;
33327;SDS011;19692;52.998;9.116;2022-12-07T02:37:09;15.07;;;7.20;;
33327;SDS011;19692;52.998;9.116;2022-12-07T02:39:50;11.87;;;6.27;;
33327;SDS011;19692;52.998;9.116;2022-12-07T02:42:42;10.13;;;6.30;;
33327;SDS011;19692;52.998;9.116;2022-12-07T02:45:17;13.30;;;6.27;;
33327;SDS011;19692;52.998;9.116;2022-12-07T02:47:47;13.13;;;6.20;;
33327;SDS011;19692;52.998;9.116;2022-12-07T02:50:18;10.57;;;6.63;;
33327;SDS011;19692;52.998;9.116;2022-12-07T02:52:45;11.53;;;6.63;;
33327;SDS011;19692;52.998;9.116;2022-12-07T02:55:11;14.07;;;7.30;;
33327;SDS011;19692;52.998;9.116;2022-12-07T02:57:47;13.97;;;7.30;;
33327;SDS011;19692;52.998;9.116;2022-12-07T03:00:37;10.13;;;6.53;;
33327;SDS011;19692;52.998;9.116;2022-12-07T03:03:19;12.77;;;6.77;;
33327;SDS011;19692;52.998;9.116;2022-12-07T03:05:49;11.17;;;6.77;;
33327;SDS011;19692;52.998;9.116;2022-12-07T03:11:14;13.77;;;7.27;;
33327;SDS011;19692;52.998;9.116;2022-12-07T03:16:40;12.53;;;6.57;;
33327;SDS011;19692;52.998;9.116;2022-12-07T03:19:18;13.30;;;6.97;;
33327;SDS011;19692;52.998;9.116;2022-12-07T03:21:47;13.73;;;6.77;;
33327;SDS011;19692;52.998;9.116;2022-12-07T03:24:27;16.87;;;7.67;;
33327;SDS011;19692;52.998;9.116;2022-12-07T03:27:06;14.27;;;7.50;;
33327;SDS011;19692;52.998;9.116;2022-12-07T03:29:59;12.73;;;7.40;;
33327;SDS011;19692;52.998;9.116;2022-12-07T03:32:37;14.77;;;6.93;;
33327;SDS011;19692;52.998;9.116;2022-12-07T03:35:17;13.20;;;7.13;;
33327;SDS011;19692;52.998;9.116;2022-12-07T03:38:00;13.30;;;7.00;;
33327;SDS011;19692;52.998;9.116;2022-12-07T03:41:34;12.33;;;6.67;;
33327;SDS011;19692;52.998;9.116;2022-12-07T03:43:48;9.63;;;6.10;;
33327;SDS011;19692;52.998;9.116;2022-12-07T03:46:18;11.47;;;6.87;;
33327;SDS011;19692;52.998;9.116;2022-12-07T03:51:51;12.53;;;6.17;;
33327;SDS011;19692;52.998;9.116;2022-12-07T03:54:32;14.57;;;6.50;;
33327;SDS011;19692;52.998;9.116;2022-12-07T03:57:05;8.10;;;5.00;;
33327;SDS011;19692;52.998;9.116;2022-12-07T03:59:33;9.60;;;4.73;;
33327;SDS011;19692;52.998;9.116;2022-12-07T04:02:04;8.13;;;4.17;;
33327;SDS011;19692;52.998;9.116;2022-12-07T04:04:32;9.87;;;4.13;;
33327;SDS011;19692;52.998;9.116;2022-12-07T04:06:59;9.13;;;4.10;;
33327;SDS011;19692;52.998;9.116;2022-12-07T04:09:25;6.57;;;3.50;;
33327;SDS011;19692;52.998;9.116;2022-12-07T04:11:51;8.23;;;3.57;;
33327;SDS011;19692;52.998;9.116;2022-12-07T04:14:17;5.83;;;3.30;;
33327;SDS011;19692;52.998;9.116;2022-12-07T04:16:43;8.23;;;2.80;;
33327;SDS011;19692;52.998;9.116;2022-12-07T04:19:11;7.10;;;3.60;;
33327;SDS011;19692;52.998;9.116;2022-12-07T04:21:37;6.97;;;2.80;;
33327;SDS011;19692;52.998;9.116;2022-12-07T04:24:04;7.17;;;2.73;;
33327;SDS011;19692;52.998;9.116;2022-12-07T04:26:30;4.87;;;2.50;;
33327;SDS011;19692;52.998;9.116;2022-12-07T04:28:55;6.70;;;2.70;;
33327;SDS011;19692;52.998;9.116;2022-12-07T04:31:21;4.87;;;2.70;;
33327;SDS011;19692;52.998;9.116;2022-12-07T04:33:47;7.27;;;2.90;;
33327;SDS011;19692;52.998;9.116;2022-12-07T04:36:13;7.23;;;3.47;;
33327;SDS011;19692;52.998;9.116;2022-12-07T04:38:38;7.77;;;3.87;;
33327;SDS011;19692;52.998;9.116;2022-12-07T04:41:08;7.00;;;4.13;;
33327;SDS011;19692;52.998;9.116;2022-12-07T04:43:34;10.77;;;3.83;;
33327;SDS011;19692;52.998;9.116;2022-12-07T04:46:01;9.53;;;4.70;;
33327;SDS011;19692;52.998;9.116;2022-12-07T04:48:27;9.33;;;4.67;;
33327;SDS011;19692;52.998;9.116;2022-12-07T04:50:56;9.90;;;4.63;;
33327;SDS011;19692;52.998;9.116;2022-12-07T04:53:21;6.93;;;4.27;;
33327;SDS011;19692;52.998;9.116;2022-12-07T04:55:47;10.03;;;4.53;;
33327;SDS011;19692;52.998;9.116;2022-12-07T04:58:13;11.13;;;5.70;;
33327;SDS011;19692;52.998;9.116;2022-12-07T05:00:40;10.70;;;5.03;;
33327;SDS011;19692;52.998;9.116;2022-12-07T05:03:06;10.10;;;4.90;;
33327;SDS011;19692;52.998;9.116;2022-12-07T05:05:32;11.23;;;5.70;;
33327;SDS011;19692;52.998;9.116;2022-12-07T05:07:58;12.60;;;6.73;;
33327;SDS011;19692;52.998;9.116;2022-12-07T05:10:24;11.00;;;6.07;;
33327;SDS011;19692;52.998;9.116;2022-12-07T05:12:49;13.97;;;6.70;;
33327;SDS011;19692;52.998;9.116;2022-12-07T05:15:15;10.60;;;6.43;;
33327;SDS011;19692;52.998;9.116;2022-12-07T05:17:41;14.53;;;7.37;;
33327;SDS011;19692;52.998;9.116;2022-12-07T05:20:07;13.63;;;6.73;;
33327;SDS011;19692;52.998;9.116;2022-12-07T05:22:34;11.23;;;6.67;;
33327;SDS011;19692;52.998;9.116;2022-12-07T05:25:00;11.87;;;6.57;;
33327;SDS011;19692;52.998;9.116;2022-12-07T05:27:26;13.37;;;6.60;;
33327;SDS011;19692;52.998;9.116;2022-12-07T05:29:52;14.43;;;6.80;;
33327;SDS011;19692;52.998;9.116;2022-12-07T05:32:18;15.10;;;6.87;;
33327;SDS011;19692;52.998;9.116;2022-12-07T05:34:44;13.70;;;7.77;;
33327;SDS011;19692;52.998;9.116;2022-12-07T05:37:10;15.33;;;6.50;;
33327;SDS011;19692;52.998;9.116;2022-12-07T05:39:35;13.20;;;6.07;;
33327;SDS011;19692;52.998;9.116;2022-12-07T05:42:03;16.17;;;7.10;;
33327;SDS011;19692;52.998;9.116;2022-12-07T05:44:38;13.77;;;7.40;;
33327;SDS011;19692;52.998;9.116;2022-12-07T05:47:05;14.63;;;6.43;;
33327;SDS011;19692;52.998;9.116;2022-12-07T05:49:31;11.47;;;5.57;;
33327;SDS011;19692;52.998;9.116;2022-12-07T05:51:57;10.30;;;5.90;;
33327;SDS011;19692;52.998;9.116;2022-12-07T05:54:23;12.03;;;6.17;;
33327;SDS011;19692;52.998;9.116;2022-12-07T05:56:49;11.77;;;5.63;;
33327;SDS011;19692;52.998;9.116;2022-12-07T05:59:15;9.37;;;5.80;;
33327;SDS011;19692;52.998;9.116;2022-12-07T06:01:51;15.10;;;5.50;;
33327;SDS011;19692;52.998;9.116;2022-12-07T06:04:20;8.33;;;5.43;;
33327;SDS011;19692;52.998;9.116;2022-12-07T06:06:47;8.77;;;4.53;;
33327;SDS011;19692;52.998;9.116;2022-12-07T06:09:13;11.53;;;5.10;;
33327;SDS011;19692;52.998;9.116;2022-12-07T06:11:40;10.17;;;5.23;;
33327;SDS011;19692;52.998;9.116;2022-12-07T06:14:24;10.63;;;5.50;;
33327;SDS011;19692;52.998;9.116;2022-12-07T06:16:50;11.77;;;4.97;;
33327;SDS011;19692;52.998;9.116;2022-12-07T06:19:16;9.90;;;4.70;;
33327;SDS011;19692;52.998;9.116;2022-12-07T06:21:42;10.73;;;5.47;;
33327;SDS011;19692;52.998;9.116;2022-12-07T06:24:10;7.97;;;4.70;;
33327;SDS011;19692;52.998;9.116;2022-12-07T06:26:37;12.27;;;5.37;;
33327;SDS011;19692;52.998;9.116;2022-12-07T06:29:03;13.20;;;5.10;;
33327;SDS011;19692;52.998;9.116;2022-12-07T06:31:29;9.00;;;4.47;;
33327;SDS011;19692;52.998;9.116;2022-12-07T06:34:02;21.93;;;11.50;;
33327;SDS011;19692;52.998;9.116;2022-12-07T06:36:34;13.90;;;5.43;;
33327;SDS011;19692;52.998;9.116;2022-12-07T06:39:00;9.90;;;4.77;;
33327;SDS011;19692;52.998;9.116;2022-12-07T06:41:26;10.80;;;5.07;;
33327;SDS011;19692;52.998;9.116;2022-12-07T06:43:52;12.83;;;5.17;;
33327;SDS011;19692;52.998;9.116;2022-12-07T06:46:18;10.87;;;4.60;;
33327;SDS011;19692;52.998;9.116;2022-12-07T06:48:43;9.10;;;4.53;;
33327;SDS011;19692;52.998;9.116;2022-12-07T06:51:09;8.07;;;4.47;;
33327;SDS011;19692;52.998;9.116;2022-12-07T06:53:35;8.97;;;4.47;;
33327;SDS011;19692;52.998;9.116;2022-12-07T06:56:02;10.20;;;4.90;;
33327;SDS011;19692;52.998;9.116;2022-12-07T06:58:29;11.63;;;4.50;;
33327;SDS011;19692;52.998;9.116;2022-12-07T07:00:55;8.83;;;3.80;;
33327;SDS011;19692;52.998;9.116;2022-12-07T07:03:21;8.77;;;4.00;;
33327;SDS011;19692;52.998;9.116;2022-12-07T07:05:47;8.90;;;4.17;;
33327;SDS011;19692;52.998;9.116;2022-12-07T07:08:13;8.07;;;3.83;;
33327;SDS011;19692;52.998;9.116;2022-12-07T07:10:39;7.73;;;3.50;;
33327;SDS011;19692;52.998;9.116;2022-12-07T07:13:05;6.83;;;3.70;;
33327;SDS011;19692;52.998;9.116;2022-12-07T07:15:32;8.87;;;3.60;;
33327;SDS011;19692;52.998;9.116;2022-12-07T07:17:59;9.37;;;3.83;;
33327;SDS011;19692;52.998;9.116;2022-12-07T07:20:25;8.53;;;3.80;;
33327;SDS011;19692;52.998;9.116;2022-12-07T07:22:53;7.77;;;3.87;;
33327;SDS011;19692;52.998;9.116;2022-12-07T07:25:20;8.20;;;3.73;;
33327;SDS011;19692;52.998;9.116;2022-12-07T07:27:46;10.93;;;3.90;;
33327;SDS011;19692;52.998;9.116;2022-12-07T07:30:12;8.00;;;4.03;;
33327;SDS011;19692;52.998;9.116;2022-12-07T07:32:38;11.87;;;3.43;;
33327;SDS011;19692;52.998;9.116;2022-12-07T07:35:04;8.80;;;3.60;;
33327;SDS011;19692;52.998;9.116;2022-12-07T07:37:30;12.30;;;3.60;;
33327;SDS011;19692;52.998;9.116;2022-12-07T07:39:56;4.90;;;3.07;;
33327;SDS011;19692;52.998;9.116;2022-12-07T07:42:21;12.60;;;3.60;;
33327;SDS011;19692;52.998;9.116;2022-12-07T07:44:47;9.10;;;2.90;;
33327;SDS011;19692;52.998;9.116;2022-12-07T07:47:13;7.60;;;3.50;;
33327;SDS011;19692;52.998;9.116;2022-12-07T07:49:39;6.47;;;2.83;;
33327;SDS011;19692;52.998;9.116;2022-12-07T07:52:05;9.57;;;2.80;;
33327;SDS011;19692;52.998;9.116;2022-12-07T07:54:31;8.43;;;3.30;;
33327;SDS011;19692;52.998;9.116;2022-12-07T07:56:57;8.30;;;3.47;;
33327;SDS011;19692;52.998;9.116;2022-12-07T07:59:23;7.13;;;3.23;;
33327;SDS011;19692;52.998;9.116;2022-12-07T08:01:50;7.63;;;3.00;;
33327;SDS011;19692;52.998;9.116;2022-12-07T08:04:16;13.80;;;2.93;;
33327;SDS011;19692;52.998;9.116;2022-12-07T08:06:41;8.73;;;3.07;;
33327;SDS011;19692;52.998;9.116;2022-12-07T08:09:07;4.63;;;2.53;;
33327;SDS011;19692;52.998;9.116;2022-12-07T08:11:34;7.97;;;2.43;;
33327;SDS011;19692;52.998;9.116;2022-12-07T08:14:01;5.90;;;2.83;;
33327;SDS011;19692;52.998;9.116;2022-12-07T08:16:27;9.83;;;3.10;;
33327;SDS011;19692;52.998;9.116;2022-12-07T08:18:53;5.40;;;2.73;;
33327;SDS011;19692;52.998;9.116;2022-12-07T08:21:19;5.30;;;3.10;;
33327;SDS011;19692;52.998;9.116;2022-12-07T08:23:45;8.50;;;2.53;;
33327;SDS011;19692;52.998;9.116;2022-12-07T08:26:12;8.27;;;2.63;;
33327;SDS011;19692;52.998;9.116;2022-12-07T08:28:40;8.83;;;2.63;;
33327;SDS011;19692;52.998;9.116;2022-12-07T08:31:16;4.60;;;2.47;;
33327;SDS011;19692;52.998;9.116;2022-12-07T08:33:44;6.17;;;2.40;;
33327;SDS011;19692;52.998;9.116;2022-12-07T08:36:12;7.00;;;2.43;;
33327;SDS011;19692;52.998;9.116;2022-12-07T08:38:38;6.40;;;2.60;;
33327;SDS011;19692;52.998;9.116;2022-12-07T08:41:06;5.80;;;2.90;;
33327;SDS011;19692;52.998;9.116;2022-12-07T08:43:32;5.33;;;2.80;;
33327;SDS011;19692;52.998;9.116;2022-12-07T08:46:06;5.17;;;2.13;;
33327;SDS011;19692;52.998;9.116;2022-12-07T08:48:43;3.00;;;2.00;;
33327;SDS011;19692;52.998;9.116;2022-12-07T08:51:23;5.43;;;2.00;;
33327;SDS011;19692;52.998;9.116;2022-12-07T08:53:50;4.03;;;2.10;;
33327;SDS011;19692;52.998;9.116;2022-12-07T08:56:17;5.00;;;2.40;;
33327;SDS011;19692;52.998;9.116;2022-12-07T08:58:43;5.37;;;2.37;;
33327;SDS011;19692;52.998;9.116;2022-12-07T09:01:09;4.40;;;2.20;;
33327;SDS011;19692;52.998;9.116;2022-12-07T09:03:35;4.03;;;2.03;;
33327;SDS011;19692;52.998;9.116;2022-12-07T09:06:01;4.60;;;2.47;;
33327;SDS011;19692;52.998;9.116;2022-12-07T09:08:31;4.93;;;2.40;;
33327;SDS011;19692;52.998;9.116;2022-12-07T09:11:01;7.73;;;2.03;;
33327;SDS011;19692;52.998;9.116;2022-12-07T09:13:27;8.73;;;2.90;;
33327;SDS011;19692;52.998;9.116;2022-12-07T09:15:53;6.83;;;2.50;;
33327;SDS011;19692;52.998;9.116;2022-12-07T09:18:19;2.60;;;2.40;;
33327;SDS011;19692;52.998;9.116;2022-12-07T09:20:45;4.60;;;2.40;;
33327;SDS011;19692;52.998;9.116;2022-12-07T09:23:11;2.73;;;2.10;;
33327;SDS011;19692;52.998;9.116;2022-12-07T09:25:37;4.63;;;2.43;;
33327;SDS011;19692;52.998;9.116;2022-12-07T09:28:03;4.87;;;2.20;;
33327;SDS011;19692;52.998;9.116;2022-12-07T09:30:28;4.83;;;1.87;;
33327;SDS011;19692;52.998;9.116;2022-12-07T09:32:55;6.27;;;2.20;;
33327;SDS011;19692;52.998;9.116;2022-12-07T09:35:22;7.37;;;2.10;;
33327;SDS011;19692;52.998;9.116;2022-12-07T09:37:49;4.73;;;1.77;;
33327;SDS011;19692;52.998;9.116;2022-12-07T09:40:15;5.80;;;1.80;;
33327;SDS011;19692;52.998;9.116;2022-12-07T09:42:44;5.67;;;2.00;;
33327;SDS011;19692;52.998;9.116;2022-12-07T09:45:15;5.07;;;1.80;;
33327;SDS011;19692;52.998;9.116;2022-12-07T09:47:46;3.77;;;1.57;;
33327;SDS011;19692;52.998;9.116;2022-12-07T09:50:17;3.50;;;1.80;;
33327;SDS011;19692;52.998;9.116;2022-12-07T09:52:51;6.97;;;1.93;;
33327;SDS011;19692;52.998;9.116;2022-12-07T09:55:22;4.07;;;1.70;;
33327;SDS011;19692;52.998;9.116;2022-12-07T09:57:52;6.63;;;1.73;;
33327;SDS011;19692;52.998;9.116;2022-12-07T10:00:19;6.27;;;2.13;;
33327;SDS011;19692;52.998;9.116;2022-12-07T10:02:56;3.67;;;1.80;;
33327;SDS011;19692;52.998;9.116;2022-12-07T10:05:31;4.30;;;1.93;;
33327;SDS011;19692;52.998;9.116;2022-12-07T10:08:02;3.93;;;1.70;;
33327;SDS011;19692;52.998;9.116;2022-12-07T10:10:32;4.87;;;2.70;;
33327;SDS011;19692;52.998;9.116;2022-12-07T10:13:04;5.63;;;2.27;;
33327;SDS011;19692;52.998;9.116;2022-12-07T10:21:08;5.33;;;2.57;;
33327;SDS011;19692;52.998;9.116;2022-12-07T10:23:58;9.03;;;2.37;;
33327;SDS011;19692;52.998;9.116;2022-12-07T10:34:50;4.97;;;2.60;;
33327;SDS011;19692;52.998;9.116;2022-12-07T10:37:18;6.20;;;2.80;;
33327;SDS011;19692;52.998;9.116;2022-12-07T10:39:46;4.00;;;2.07;;
33327;SDS011;19692;52.998;9.116;2022-12-07T10:42:19;4.93;;;2.47;;
33327;SDS011;19692;52.998;9.116;2022-12-07T10:45:06;4.07;;;2.03;;
33327;SDS011;19692;52.998;9.116;2022-12-07T10:56:23;4.03;;;2.53;;
33327;SDS011;19692;52.998;9.116;2022-12-07T11:07:44;7.17;;;2.47;;
33327;SDS011;19692;52.998;9.116;2022-12-07T11:16:14;7.87;;;2.40;;
33327;SDS011;19692;52.998;9.116;2022-12-07T11:18:48;3.70;;;2.23;;
33327;SDS011;19692;52.998;9.116;2022-12-07T11:21:34;5.67;;;3.03;;
33327;SDS011;19692;52.998;9.116;2022-12-07T11:24:49;5.33;;;2.70;;
33327;SDS011;19692;52.998;9.116;2022-12-07T11:28:15;3.73;;;2.10;;
33327;SDS011;19692;52.998;9.116;2022-12-07T11:42:44;5.57;;;1.80;;
33327;SDS011;19692;52.998;9.116;2022-12-07T11:44:53;7.13;;;2.07;;
33327;SDS011;19692;52.998;9.116;2022-12-07T11:47:43;6.20;;;2.00;;
33327;SDS011;19692;52.998;9.116;2022-12-07T11:50:39;5.83;;;2.20;;
33327;SDS011;19692;52.998;9.116;2022-12-07T11:53:31;8.90;;;2.47;;
33327;SDS011;19692;52.998;9.116;2022-12-07T11:56:14;3.10;;;1.87;;
33327;SDS011;19692;52.998;9.116;2022-12-07T12:01:53;6.47;;;1.83;;
33327;SDS011;19692;52.998;9.116;2022-12-07T12:04:27;4.67;;;1.80;;
33327;SDS011;19692;52.998;9.116;2022-12-07T12:07:00;8.17;;;2.07;;
33327;SDS011;19692;52.998;9.116;2022-12-07T12:09:31;5.70;;;2.13;;
33327;SDS011;19692;52.998;9.116;2022-12-07T12:15:04;3.87;;;2.47;;
33327;SDS011;19692;52.998;9.116;2022-12-07T12:20:43;5.10;;;2.13;;
33327;SDS011;19692;52.998;9.116;2022-12-07T12:23:16;4.90;;;1.93;;
33327;SDS011;19692;52.998;9.116;2022-12-07T12:25:54;5.67;;;2.03;;
33327;SDS011;19692;52.998;9.116;2022-12-07T12:28:32;5.33;;;1.80;;
33327;SDS011;19692;52.998;9.116;2022-12-07T12:33:55;8.77;;;2.20;;
33327;SDS011;19692;52.998;9.116;2022-12-07T12:44:01;4.13;;;1.97;;
33327;SDS011;19692;52.998;9.116;2022-12-07T12:48:54;7.63;;;2.40;;
33327;SDS011;19692;52.998;9.116;2022-12-07T12:51:39;8.20;;;3.03;;
33327;SDS011;19692;52.998;9.116;2022-12-07T12:54:13;8.37;;;4.17;;
33327;SDS011;19692;52.998;9.116;2022-12-07T13:02:37;4.20;;;2.97;;
33327;SDS011;19692;52.998;9.116;2022-12-07T13:15:43;6.00;;;3.17;;
33327;SDS011;19692;52.998;9.116;2022-12-07T13:20:56;5.00;;;1.80;;
33327;SDS011;19692;52.998;9.116;2022-12-07T13:26:19;4.93;;;2.00;;
33327;SDS011;19692;52.998;9.116;2022-12-07T13:29:12;4.67;;;1.60;;
33327;SDS011;19692;52.998;9.116;2022-12-07T13:31:50;5.63;;;1.70;;
33327;SDS011;19692;52.998;9.116;2022-12-07T13:37:00;5.17;;;2.20;;
33327;SDS011;19692;52.998;9.116;2022-12-07T13:39:46;6.97;;;2.73;;
33327;SDS011;19692;52.998;9.116;2022-12-07T13:44:59;4.57;;;2.07;;
33327;SDS011;19692;52.998;9.116;2022-12-07T13:47:48;3.90;;;2.20;;
33327;SDS011;19692;52.998;9.116;2022-12-07T13:50:28;6.07;;;2.70;;
33327;SDS011;19692;52.998;9.116;2022-12-07T13:52:57;7.53;;;3.43;;
33327;SDS011;19692;52.998;9.116;2022-12-07T13:55:25;6.90;;;2.50;;
33327;SDS011;19692;52.998;9.116;2022-12-07T13:57:52;5.03;;;2.40;;
33327;SDS011;19692;52.998;9.116;2022-12-07T14:00:20;4.07;;;2.40;;
33327;SDS011;19692;52.998;9.116;2022-12-07T14:05:27;5.70;;;2.90;;
33327;SDS011;19692;52.998;9.116;2022-12-07T14:08:03;4.37;;;2.73;;
33327;SDS011;19692;52.998;9.116;2022-12-07T14:16:06;6.83;;;3.70;;
33327;SDS011;19692;52.998;9.116;2022-12-07T14:22:32;6.93;;;4.30;;
33327;SDS011;19692;52.998;9.116;2022-12-07T14:27:38;6.43;;;5.83;;
33327;SDS011;19692;52.998;9.116;2022-12-07T14:30:05;6.97;;;5.33;;
33327;SDS011;19692;52.998;9.116;2022-12-07T14:32:31;9.20;;;6.37;;
33327;SDS011;19692;52.998;9.116;2022-12-07T14:35:11;9.30;;;7.73;;
33327;SDS011;19692;52.998;9.116;2022-12-07T14:37:39;7.53;;;4.43;;
33327;SDS011;19692;52.998;9.116;2022-12-07T14:40:07;9.27;;;5.30;;
33327;SDS011;19692;52.998;9.116;2022-12-07T14:42:38;8.37;;;4.30;;
33327;SDS011;19692;52.998;9.116;2022-12-07T14:45:05;4.67;;;3.23;;
33327;SDS011;19692;52.998;9.116;2022-12-07T14:47:38;7.33;;;3.80;;
33327;SDS011;19692;52.998;9.116;2022-12-07T14:50:04;34.83;;;15.37;;
33327;SDS011;19692;52.998;9.116;2022-12-07T14:52:31;16.73;;;8.53;;
33327;SDS011;19692;52.998;9.116;2022-12-07T14:54:57;9.70;;;4.80;;
33327;SDS011;19692;52.998;9.116;2022-12-07T14:57:23;5.17;;;3.40;;
33327;SDS011;19692;52.998;9.116;2022-12-07T14:59:49;7.50;;;3.50;;
33327;SDS011;19692;52.998;9.116;2022-12-07T15:02:15;7.47;;;3.33;;
33327;SDS011;19692;52.998;9.116;2022-12-07T15:04:42;6.67;;;3.10;;
33327;SDS011;19692;52.998;9.116;2022-12-07T15:07:18;3.77;;;2.87;;
33327;SDS011;19692;52.998;9.116;2022-12-07T15:09:46;5.17;;;2.67;;
33327;SDS011;19692;52.998;9.116;2022-12-07T15:12:12;9.17;;;3.40;;
33327;SDS011;19692;52.998;9.116;2022-12-07T15:14:38;5.30;;;3.40;;
33327;SDS011;19692;52.998;9.116;2022-12-07T15:17:04;8.77;;;3.63;;
33327;SDS011;19692;52.998;9.116;2022-12-07T15:19:30;7.23;;;4.77;;
33327;SDS011;19692;52.998;9.116;2022-12-07T15:21:56;6.60;;;4.63;;
33327;SDS011;19692;52.998;9.116;2022-12-07T15:24:23;9.83;;;5.33;;
33327;SDS011;19692;52.998;9.116;2022-12-07T15:26:49;4.93;;;3.97;;
33327;SDS011;19692;52.998;9.116;2022-12-07T15:29:15;9.83;;;4.93;;
33327;SDS011;19692;52.998;9.116;2022-12-07T15:31:41;6.37;;;3.97;;
33327;SDS011;19692;52.998;9.116;2022-12-07T15:34:07;8.00;;;4.27;;
33327;SDS011;19692;52.998;9.116;2022-12-07T15:36:33;6.67;;;3.60;;
33327;SDS011;19692;52.998;9.116;2022-12-07T15:39:00;8.30;;;4.10;;
33327;SDS011;19692;52.998;9.116;2022-12-07T15:41:26;8.40;;;4.17;;
33327;SDS011;19692;52.998;9.116;2022-12-07T15:43:52;5.30;;;3.00;;
33327;SDS011;19692;52.998;9.116;2022-12-07T15:46:37;6.37;;;3.10;;
33327;SDS011;19692;52.998;9.116;2022-12-07T15:49:10;6.17;;;3.60;;
33327;SDS011;19692;52.998;9.116;2022-12-07T15:51:42;4.23;;;3.50;;
33327;SDS011;19692;52.998;9.116;2022-12-07T15:54:11;8.07;;;3.97;;
33327;SDS011;19692;52.998;9.116;2022-12-07T15:56:44;6.30;;;3.17;;
33327;SDS011;19692;52.998;9.116;2022-12-07T15:59:10;4.67;;;3.20;;
33327;SDS011;19692;52.998;9.116;2022-12-07T16:01:35;6.17;;;3.70;;
33327;SDS011;19692;52.998;9.116;2022-12-07T16:04:01;7.90;;;4.17;;
33327;SDS011;19692;52.998;9.116;2022-12-07T16:06:27;6.43;;;4.40;;
33327;SDS011;19692;52.998;9.116;2022-12-07T16:08:53;23.23;;;13.10;;
33327;SDS011;19692;52.998;9.116;2022-12-07T16:11:19;35.77;;;15.93;;
33327;SDS011;19692;52.998;9.116;2022-12-07T16:13:46;22.23;;;9.20;;
33327;SDS011;19692;52.998;9.116;2022-12-07T16:16:13;14.30;;;6.10;;
33327;SDS011;19692;52.998;9.116;2022-12-07T16:18:41;8.30;;;2.80;;
33327;SDS011;19692;52.998;9.116;2022-12-07T16:21:11;5.83;;;2.77;;
33327;SDS011;19692;52.998;9.116;2022-12-07T16:23:37;4.23;;;2.40;;
33327;SDS011;19692;52.998;9.116;2022-12-07T16:26:22;4.80;;;2.93;;
33327;SDS011;19692;52.998;9.116;2022-12-07T16:28:48;6.83;;;2.50;;
33327;SDS011;19692;52.998;9.116;2022-12-07T16:31:17;4.53;;;2.60;;
33327;SDS011;19692;52.998;9.116;2022-12-07T16:33:45;3.23;;;2.50;;
33327;SDS011;19692;52.998;9.116;2022-12-07T16:36:13;3.83;;;2.00;;
33327;SDS011;19692;52.998;9.116;2022-12-07T16:38:41;2.17;;;1.83;;
33327;SDS011;19692;52.998;9.116;2022-12-07T16:41:08;4.27;;;1.73;;
33327;SDS011;19692;52.998;9.116;2022-12-07T16:43:35;2.83;;;2.33;;
33327;SDS011;19692;52.998;9.116;2022-12-07T16:46:01;5.60;;;2.50;;
33327;SDS011;19692;52.998;9.116;2022-12-07T16:48:28;10.10;;;3.70;;
33327;SDS011;19692;52.998;9.116;2022-12-07T16:50:55;6.13;;;3.70;;
33327;SDS011;19692;52.998;9.116;2022-12-07T16:53:21;5.37;;;3.33;;
33327;SDS011;19692;52.998;9.116;2022-12-07T16:55:49;11.17;;;7.70;;
33327;SDS011;19692;52.998;9.116;2022-12-07T16:58:16;5.80;;;2.80;;
33327;SDS011;19692;52.998;9.116;2022-12-07T17:00:42;4.57;;;2.77;;
33327;SDS011;19692;52.998;9.116;2022-12-07T17:03:09;4.57;;;2.70;;
33327;SDS011;19692;52.998;9.116;2022-12-07T17:05:39;6.80;;;3.17;;
33327;SDS011;19692;52.998;9.116;2022-12-07T17:08:06;6.37;;;3.20;;
33327;SDS011;19692;52.998;9.116;2022-12-07T17:10:37;8.03;;;2.57;;
33327;SDS011;19692;52.998;9.116;2022-12-07T17:13:05;6.77;;;2.70;;
33327;SDS011;19692;52.998;9.116;2022-12-07T17:15:57;4.50;;;2.87;;
33327;SDS011;19692;52.998;9.116;2022-12-07T17:18:29;9.17;;;2.93;;